sensor_id;sensor_type;location;lat;lon;timestamp;P1;durP1;ratioP1;P2;durP2;ratioP2
55537;SDS011;41383;51.418;7.286;2023-08-30T00:00:28;20.83;;;11.18;;
55537;SDS011;41383;51.418;7.286;2023-08-30T00:02:53;16.85;;;11.35;;
55537;SDS011;41383;51.418;7.286;2023-08-30T00:05:18;16.08;;;10.90;;
55537;SDS011;41383;51.418;7.286;2023-08-30T00:07:44;17.13;;;11.67;;
55537;SDS011;41383;51.418;7.286;2023-08-30T00:10:09;15.77;;;10.25;;
55537;SDS011;41383;51.418;7.286;2023-08-30T00:12:35;19.50;;;11.93;;
55537;SDS011;41383;51.418;7.286;2023-08-30T00:15:00;16.65;;;10.23;;
55537;SDS011;41383;51.418;7.286;2023-08-30T00:17:26;16.77;;;11.05;;
55537;SDS011;41383;51.418;7.286;2023-08-30T00:19:51;21.23;;;11.13;;
55537;SDS011;41383;51.418;7.286;2023-08-30T00:22:18;17.10;;;10.77;;
55537;SDS011;41383;51.418;7.286;2023-08-30T00:24:43;23.38;;;12.10;;
55537;SDS011;41383;51.418;7.286;2023-08-30T00:27:09;16.75;;;11.00;;
55537;SDS011;41383;51.418;7.286;2023-08-30T00:29:34;17.87;;;10.77;;
55537;SDS011;41383;51.418;7.286;2023-08-30T00:31:59;19.13;;;11.57;;
55537;SDS011;41383;51.418;7.286;2023-08-30T00:34:25;19.80;;;13.53;;
55537;SDS011;41383;51.418;7.286;2023-08-30T00:36:50;22.10;;;10.93;;
55537;SDS011;41383;51.418;7.286;2023-08-30T00:39:16;23.00;;;12.20;;
55537;SDS011;41383;51.418;7.286;2023-08-30T00:41:41;20.50;;;11.53;;
55537;SDS011;41383;51.418;7.286;2023-08-30T00:44:06;17.63;;;11.52;;
55537;SDS011;41383;51.418;7.286;2023-08-30T00:46:32;21.80;;;11.98;;
55537;SDS011;41383;51.418;7.286;2023-08-30T00:48:59;15.65;;;11.10;;
55537;SDS011;41383;51.418;7.286;2023-08-30T00:51:25;17.92;;;11.38;;
55537;SDS011;41383;51.418;7.286;2023-08-30T00:53:51;17.52;;;12.10;;
55537;SDS011;41383;51.418;7.286;2023-08-30T00:56:16;19.02;;;11.25;;
55537;SDS011;41383;51.418;7.286;2023-08-30T00:58:42;20.67;;;11.13;;
55537;SDS011;41383;51.418;7.286;2023-08-30T01:01:08;17.87;;;11.13;;
55537;SDS011;41383;51.418;7.286;2023-08-30T01:03:33;21.52;;;11.25;;
55537;SDS011;41383;51.418;7.286;2023-08-30T01:05:59;21.45;;;13.05;;
55537;SDS011;41383;51.418;7.286;2023-08-30T01:08:24;20.73;;;12.13;;
55537;SDS011;41383;51.418;7.286;2023-08-30T01:10:52;18.20;;;11.80;;
55537;SDS011;41383;51.418;7.286;2023-08-30T01:13:27;18.90;;;12.18;;
55537;SDS011;41383;51.418;7.286;2023-08-30T01:15:56;22.40;;;12.88;;
55537;SDS011;41383;51.418;7.286;2023-08-30T01:18:25;23.58;;;12.23;;
55537;SDS011;41383;51.418;7.286;2023-08-30T01:20:52;19.85;;;12.98;;
55537;SDS011;41383;51.418;7.286;2023-08-30T01:23:40;21.52;;;14.43;;
55537;SDS011;41383;51.418;7.286;2023-08-30T01:26:14;17.80;;;12.45;;
55537;SDS011;41383;51.418;7.286;2023-08-30T01:28:49;20.85;;;14.05;;
55537;SDS011;41383;51.418;7.286;2023-08-30T01:31:17;20.20;;;12.75;;
55537;SDS011;41383;51.418;7.286;2023-08-30T01:33:46;26.05;;;12.68;;
55537;SDS011;41383;51.418;7.286;2023-08-30T01:36:11;22.23;;;12.45;;
55537;SDS011;41383;51.418;7.286;2023-08-30T01:38:37;20.15;;;13.73;;
55537;SDS011;41383;51.418;7.286;2023-08-30T01:41:04;22.83;;;13.32;;
55537;SDS011;41383;51.418;7.286;2023-08-30T01:43:29;23.65;;;15.38;;
55537;SDS011;41383;51.418;7.286;2023-08-30T01:45:57;20.10;;;13.38;;
55537;SDS011;41383;51.418;7.286;2023-08-30T01:48:23;24.90;;;15.18;;
55537;SDS011;41383;51.418;7.286;2023-08-30T01:50:51;25.48;;;15.45;;
55537;SDS011;41383;51.418;7.286;2023-08-30T01:53:16;23.50;;;14.10;;
55537;SDS011;41383;51.418;7.286;2023-08-30T01:55:42;22.95;;;14.05;;
55537;SDS011;41383;51.418;7.286;2023-08-30T01:58:07;22.77;;;14.10;;
55537;SDS011;41383;51.418;7.286;2023-08-30T02:00:34;23.85;;;14.15;;
55537;SDS011;41383;51.418;7.286;2023-08-30T02:03:12;22.88;;;15.32;;
55537;SDS011;41383;51.418;7.286;2023-08-30T02:08:30;26.98;;;15.82;;
55537;SDS011;41383;51.418;7.286;2023-08-30T02:11:03;26.27;;;15.93;;
55537;SDS011;41383;51.418;7.286;2023-08-30T02:13:32;24.40;;;15.98;;
55537;SDS011;41383;51.418;7.286;2023-08-30T02:15:59;27.48;;;15.80;;
55537;SDS011;41383;51.418;7.286;2023-08-30T02:18:25;26.60;;;16.65;;
55537;SDS011;41383;51.418;7.286;2023-08-30T02:20:51;22.75;;;15.57;;
55537;SDS011;41383;51.418;7.286;2023-08-30T02:23:17;22.33;;;15.13;;
55537;SDS011;41383;51.418;7.286;2023-08-30T02:25:42;24.60;;;16.08;;
55537;SDS011;41383;51.418;7.286;2023-08-30T02:28:08;27.50;;;15.88;;
55537;SDS011;41383;51.418;7.286;2023-08-30T02:30:33;25.83;;;17.13;;
55537;SDS011;41383;51.418;7.286;2023-08-30T02:32:58;27.17;;;15.67;;
55537;SDS011;41383;51.418;7.286;2023-08-30T02:35:24;27.23;;;16.33;;
55537;SDS011;41383;51.418;7.286;2023-08-30T02:37:49;35.40;;;16.48;;
55537;SDS011;41383;51.418;7.286;2023-08-30T02:40:14;23.98;;;16.65;;
55537;SDS011;41383;51.418;7.286;2023-08-30T02:42:40;26.02;;;15.70;;
55537;SDS011;41383;51.418;7.286;2023-08-30T02:45:05;23.10;;;14.65;;
55537;SDS011;41383;51.418;7.286;2023-08-30T02:47:31;28.17;;;17.02;;
55537;SDS011;41383;51.418;7.286;2023-08-30T02:49:56;28.13;;;17.88;;
55537;SDS011;41383;51.418;7.286;2023-08-30T02:52:21;24.77;;;16.70;;
55537;SDS011;41383;51.418;7.286;2023-08-30T02:54:46;27.70;;;15.30;;
55537;SDS011;41383;51.418;7.286;2023-08-30T02:57:12;24.80;;;16.23;;
55537;SDS011;41383;51.418;7.286;2023-08-30T02:59:37;23.77;;;16.47;;
55537;SDS011;41383;51.418;7.286;2023-08-30T03:02:02;24.17;;;16.17;;
55537;SDS011;41383;51.418;7.286;2023-08-30T03:04:27;26.73;;;16.27;;
55537;SDS011;41383;51.418;7.286;2023-08-30T03:06:53;30.63;;;17.80;;
55537;SDS011;41383;51.418;7.286;2023-08-30T03:09:18;31.30;;;16.45;;
55537;SDS011;41383;51.418;7.286;2023-08-30T03:11:43;28.23;;;17.60;;
55537;SDS011;41383;51.418;7.286;2023-08-30T03:14:09;28.13;;;17.42;;
55537;SDS011;41383;51.418;7.286;2023-08-30T03:16:34;34.00;;;19.75;;
55537;SDS011;41383;51.418;7.286;2023-08-30T03:18:59;28.38;;;18.10;;
55537;SDS011;41383;51.418;7.286;2023-08-30T03:21:25;28.83;;;18.23;;
55537;SDS011;41383;51.418;7.286;2023-08-30T03:23:50;30.87;;;18.20;;
55537;SDS011;41383;51.418;7.286;2023-08-30T03:26:16;27.57;;;17.53;;
55537;SDS011;41383;51.418;7.286;2023-08-30T03:28:42;32.05;;;19.98;;
55537;SDS011;41383;51.418;7.286;2023-08-30T03:31:12;31.42;;;18.92;;
55537;SDS011;41383;51.418;7.286;2023-08-30T03:33:39;31.33;;;20.60;;
55537;SDS011;41383;51.418;7.286;2023-08-30T03:36:06;35.13;;;21.95;;
55537;SDS011;41383;51.418;7.286;2023-08-30T03:38:33;29.67;;;19.35;;
55537;SDS011;41383;51.418;7.286;2023-08-30T03:40:58;32.55;;;20.80;;
55537;SDS011;41383;51.418;7.286;2023-08-30T03:43:23;38.60;;;22.60;;
55537;SDS011;41383;51.418;7.286;2023-08-30T03:45:49;36.42;;;23.70;;
55537;SDS011;41383;51.418;7.286;2023-08-30T03:48:14;42.03;;;25.50;;
55537;SDS011;41383;51.418;7.286;2023-08-30T03:50:39;38.75;;;23.67;;
55537;SDS011;41383;51.418;7.286;2023-08-30T03:53:05;39.97;;;24.20;;
55537;SDS011;41383;51.418;7.286;2023-08-30T03:55:30;39.42;;;24.42;;
55537;SDS011;41383;51.418;7.286;2023-08-30T03:57:55;37.17;;;23.20;;
55537;SDS011;41383;51.418;7.286;2023-08-30T04:00:20;44.20;;;26.03;;
55537;SDS011;41383;51.418;7.286;2023-08-30T04:02:46;38.35;;;23.42;;
55537;SDS011;41383;51.418;7.286;2023-08-30T04:05:12;47.67;;;27.17;;
55537;SDS011;41383;51.418;7.286;2023-08-30T04:07:37;34.35;;;23.80;;
55537;SDS011;41383;51.418;7.286;2023-08-30T04:10:03;41.15;;;22.67;;
55537;SDS011;41383;51.418;7.286;2023-08-30T04:12:32;37.42;;;22.92;;
55537;SDS011;41383;51.418;7.286;2023-08-30T04:14:57;35.17;;;22.33;;
55537;SDS011;41383;51.418;7.286;2023-08-30T04:17:22;41.35;;;24.15;;
55537;SDS011;41383;51.418;7.286;2023-08-30T04:19:51;43.75;;;24.90;;
55537;SDS011;41383;51.418;7.286;2023-08-30T04:22:16;40.03;;;24.80;;
55537;SDS011;41383;51.418;7.286;2023-08-30T04:24:42;35.13;;;21.67;;
55537;SDS011;41383;51.418;7.286;2023-08-30T04:27:07;41.30;;;24.67;;
55537;SDS011;41383;51.418;7.286;2023-08-30T04:29:32;40.70;;;24.93;;
55537;SDS011;41383;51.418;7.286;2023-08-30T04:31:57;41.70;;;25.57;;
55537;SDS011;41383;51.418;7.286;2023-08-30T04:34:23;37.88;;;23.17;;
55537;SDS011;41383;51.418;7.286;2023-08-30T04:36:48;43.50;;;25.88;;
55537;SDS011;41383;51.418;7.286;2023-08-30T04:39:13;37.60;;;23.50;;
55537;SDS011;41383;51.418;7.286;2023-08-30T04:41:39;35.47;;;21.85;;
55537;SDS011;41383;51.418;7.286;2023-08-30T04:44:04;38.87;;;24.97;;
55537;SDS011;41383;51.418;7.286;2023-08-30T04:46:29;38.70;;;25.00;;
55537;SDS011;41383;51.418;7.286;2023-08-30T04:48:54;44.20;;;23.75;;
55537;SDS011;41383;51.418;7.286;2023-08-30T04:51:20;39.70;;;25.77;;
55537;SDS011;41383;51.418;7.286;2023-08-30T04:53:45;37.13;;;21.87;;
55537;SDS011;41383;51.418;7.286;2023-08-30T04:56:11;38.85;;;25.00;;
55537;SDS011;41383;51.418;7.286;2023-08-30T04:58:37;39.65;;;24.73;;
55537;SDS011;41383;51.418;7.286;2023-08-30T05:01:02;37.90;;;25.50;;
55537;SDS011;41383;51.418;7.286;2023-08-30T05:03:27;37.50;;;23.03;;
55537;SDS011;41383;51.418;7.286;2023-08-30T05:05:53;51.13;;;25.85;;
55537;SDS011;41383;51.418;7.286;2023-08-30T05:08:18;46.73;;;25.87;;
55537;SDS011;41383;51.418;7.286;2023-08-30T05:10:43;51.43;;;28.90;;
55537;SDS011;41383;51.418;7.286;2023-08-30T05:13:08;44.93;;;26.43;;
55537;SDS011;41383;51.418;7.286;2023-08-30T05:15:34;42.53;;;26.55;;
55537;SDS011;41383;51.418;7.286;2023-08-30T05:17:59;44.77;;;26.83;;
55537;SDS011;41383;51.418;7.286;2023-08-30T05:20:25;39.93;;;25.17;;
55537;SDS011;41383;51.418;7.286;2023-08-30T05:22:50;48.13;;;27.33;;
55537;SDS011;41383;51.418;7.286;2023-08-30T05:25:15;44.17;;;27.77;;
55537;SDS011;41383;51.418;7.286;2023-08-30T05:27:40;45.17;;;27.42;;
55537;SDS011;41383;51.418;7.286;2023-08-30T05:30:06;40.87;;;27.60;;
55537;SDS011;41383;51.418;7.286;2023-08-30T05:32:31;44.75;;;26.73;;
55537;SDS011;41383;51.418;7.286;2023-08-30T05:34:59;48.03;;;26.17;;
55537;SDS011;41383;51.418;7.286;2023-08-30T05:37:24;47.78;;;27.73;;
55537;SDS011;41383;51.418;7.286;2023-08-30T05:39:49;47.67;;;26.07;;
55537;SDS011;41383;51.418;7.286;2023-08-30T05:42:15;45.88;;;30.27;;
55537;SDS011;41383;51.418;7.286;2023-08-30T05:44:40;49.43;;;26.90;;
55537;SDS011;41383;51.418;7.286;2023-08-30T05:47:05;41.23;;;25.13;;
55537;SDS011;41383;51.418;7.286;2023-08-30T05:49:31;37.97;;;25.53;;
55537;SDS011;41383;51.418;7.286;2023-08-30T05:51:56;44.15;;;26.52;;
55537;SDS011;41383;51.418;7.286;2023-08-30T05:54:21;42.47;;;26.13;;
55537;SDS011;41383;51.418;7.286;2023-08-30T05:56:47;43.83;;;24.90;;
55537;SDS011;41383;51.418;7.286;2023-08-30T05:59:12;40.45;;;26.48;;
55537;SDS011;41383;51.418;7.286;2023-08-30T06:01:38;39.95;;;23.92;;
55537;SDS011;41383;51.418;7.286;2023-08-30T06:04:03;55.55;;;25.48;;
55537;SDS011;41383;51.418;7.286;2023-08-30T06:06:29;39.40;;;26.05;;
55537;SDS011;41383;51.418;7.286;2023-08-30T06:08:54;38.25;;;23.40;;
55537;SDS011;41383;51.418;7.286;2023-08-30T06:11:20;51.50;;;26.67;;
55537;SDS011;41383;51.418;7.286;2023-08-30T06:13:45;50.00;;;27.37;;
55537;SDS011;41383;51.418;7.286;2023-08-30T06:16:10;40.95;;;24.83;;
55537;SDS011;41383;51.418;7.286;2023-08-30T06:18:35;33.73;;;22.47;;
55537;SDS011;41383;51.418;7.286;2023-08-30T06:21:02;42.90;;;26.20;;
55537;SDS011;41383;51.418;7.286;2023-08-30T06:23:29;46.55;;;27.60;;
55537;SDS011;41383;51.418;7.286;2023-08-30T06:25:55;39.70;;;25.05;;
55537;SDS011;41383;51.418;7.286;2023-08-30T06:28:21;40.75;;;23.83;;
55537;SDS011;41383;51.418;7.286;2023-08-30T06:30:46;39.95;;;24.98;;
55537;SDS011;41383;51.418;7.286;2023-08-30T06:33:11;38.40;;;23.97;;
55537;SDS011;41383;51.418;7.286;2023-08-30T06:35:37;47.00;;;28.48;;
55537;SDS011;41383;51.418;7.286;2023-08-30T06:38:04;41.05;;;24.75;;
55537;SDS011;41383;51.418;7.286;2023-08-30T06:40:29;40.55;;;27.05;;
55537;SDS011;41383;51.418;7.286;2023-08-30T06:42:55;39.70;;;25.65;;
55537;SDS011;41383;51.418;7.286;2023-08-30T06:45:20;41.30;;;27.08;;
55537;SDS011;41383;51.418;7.286;2023-08-30T06:47:46;40.75;;;25.80;;
55537;SDS011;41383;51.418;7.286;2023-08-30T06:50:13;38.97;;;25.23;;
55537;SDS011;41383;51.418;7.286;2023-08-30T06:52:38;38.22;;;23.30;;
55537;SDS011;41383;51.418;7.286;2023-08-30T06:55:04;42.63;;;24.17;;
55537;SDS011;41383;51.418;7.286;2023-08-30T06:57:29;34.45;;;22.25;;
55537;SDS011;41383;51.418;7.286;2023-08-30T06:59:55;35.40;;;22.17;;
55537;SDS011;41383;51.418;7.286;2023-08-30T07:02:20;33.05;;;20.88;;
55537;SDS011;41383;51.418;7.286;2023-08-30T07:04:45;34.60;;;21.50;;
55537;SDS011;41383;51.418;7.286;2023-08-30T07:07:11;34.35;;;23.20;;
55537;SDS011;41383;51.418;7.286;2023-08-30T07:09:38;32.45;;;20.73;;
55537;SDS011;41383;51.418;7.286;2023-08-30T07:12:03;32.40;;;20.97;;
55537;SDS011;41383;51.418;7.286;2023-08-30T07:14:28;40.33;;;19.80;;
55537;SDS011;41383;51.418;7.286;2023-08-30T07:16:54;30.23;;;20.13;;
55537;SDS011;41383;51.418;7.286;2023-08-30T07:19:19;32.38;;;19.63;;
55537;SDS011;41383;51.418;7.286;2023-08-30T07:21:44;29.93;;;18.37;;
55537;SDS011;41383;51.418;7.286;2023-08-30T07:24:10;30.65;;;19.33;;
55537;SDS011;41383;51.418;7.286;2023-08-30T07:26:35;33.67;;;20.95;;
55537;SDS011;41383;51.418;7.286;2023-08-30T07:29:01;26.92;;;18.45;;
55537;SDS011;41383;51.418;7.286;2023-08-30T07:31:29;24.88;;;17.48;;
55537;SDS011;41383;51.418;7.286;2023-08-30T07:33:55;25.23;;;16.13;;
55537;SDS011;41383;51.418;7.286;2023-08-30T07:36:21;25.25;;;16.25;;
55537;SDS011;41383;51.418;7.286;2023-08-30T07:38:47;23.47;;;15.20;;
55537;SDS011;41383;51.418;7.286;2023-08-30T07:41:12;24.80;;;16.57;;
55537;SDS011;41383;51.418;7.286;2023-08-30T07:43:37;24.50;;;14.43;;
55537;SDS011;41383;51.418;7.286;2023-08-30T07:46:03;20.57;;;13.43;;
55537;SDS011;41383;51.418;7.286;2023-08-30T07:48:28;24.38;;;14.43;;
55537;SDS011;41383;51.418;7.286;2023-08-30T07:50:54;19.13;;;13.02;;
55537;SDS011;41383;51.418;7.286;2023-08-30T07:53:19;18.80;;;12.83;;
55537;SDS011;41383;51.418;7.286;2023-08-30T07:55:50;21.38;;;13.20;;
55537;SDS011;41383;51.418;7.286;2023-08-30T07:58:16;22.58;;;12.85;;
55537;SDS011;41383;51.418;7.286;2023-08-30T08:00:42;18.15;;;11.48;;
55537;SDS011;41383;51.418;7.286;2023-08-30T08:03:07;17.67;;;10.35;;
55537;SDS011;41383;51.418;7.286;2023-08-30T08:05:33;21.35;;;10.75;;
55537;SDS011;41383;51.418;7.286;2023-08-30T08:07:59;17.10;;;10.07;;
55537;SDS011;41383;51.418;7.286;2023-08-30T08:10:25;18.98;;;11.10;;
55537;SDS011;41383;51.418;7.286;2023-08-30T08:12:51;18.13;;;10.37;;
55537;SDS011;41383;51.418;7.286;2023-08-30T08:15:16;16.20;;;9.70;;
55537;SDS011;41383;51.418;7.286;2023-08-30T08:17:41;16.73;;;9.63;;
55537;SDS011;41383;51.418;7.286;2023-08-30T08:20:07;13.45;;;9.35;;
55537;SDS011;41383;51.418;7.286;2023-08-30T08:22:32;16.42;;;9.93;;
55537;SDS011;41383;51.418;7.286;2023-08-30T08:24:58;14.57;;;8.18;;
55537;SDS011;41383;51.418;7.286;2023-08-30T08:27:26;12.15;;;7.85;;
55537;SDS011;41383;51.418;7.286;2023-08-30T08:29:51;14.23;;;7.63;;
55537;SDS011;41383;51.418;7.286;2023-08-30T08:32:16;13.48;;;6.43;;
55537;SDS011;41383;51.418;7.286;2023-08-30T08:34:42;13.88;;;6.13;;
55537;SDS011;41383;51.418;7.286;2023-08-30T08:37:07;12.80;;;6.78;;
55537;SDS011;41383;51.418;7.286;2023-08-30T08:39:32;11.18;;;6.07;;
55537;SDS011;41383;51.418;7.286;2023-08-30T08:41:59;10.50;;;5.32;;
55537;SDS011;41383;51.418;7.286;2023-08-30T08:44:25;10.15;;;4.97;;
55537;SDS011;41383;51.418;7.286;2023-08-30T08:46:52;8.38;;;5.43;;
55537;SDS011;41383;51.418;7.286;2023-08-30T08:49:18;8.52;;;5.15;;
55537;SDS011;41383;51.418;7.286;2023-08-30T08:51:43;9.65;;;5.20;;
55537;SDS011;41383;51.418;7.286;2023-08-30T08:54:10;10.27;;;5.38;;
55537;SDS011;41383;51.418;7.286;2023-08-30T08:56:37;10.48;;;5.22;;
55537;SDS011;41383;51.418;7.286;2023-08-30T08:59:02;11.00;;;5.72;;
55537;SDS011;41383;51.418;7.286;2023-08-30T09:01:30;12.02;;;5.00;;
55537;SDS011;41383;51.418;7.286;2023-08-30T09:03:58;10.32;;;5.03;;
55537;SDS011;41383;51.418;7.286;2023-08-30T09:06:24;15.70;;;5.68;;
55537;SDS011;41383;51.418;7.286;2023-08-30T09:08:50;9.55;;;5.32;;
55537;SDS011;41383;51.418;7.286;2023-08-30T09:11:15;9.38;;;4.85;;
55537;SDS011;41383;51.418;7.286;2023-08-30T09:13:44;7.20;;;4.05;;
55537;SDS011;41383;51.418;7.286;2023-08-30T09:16:13;10.23;;;5.10;;
55537;SDS011;41383;51.418;7.286;2023-08-30T09:18:40;8.35;;;3.50;;
55537;SDS011;41383;51.418;7.286;2023-08-30T09:21:06;10.70;;;5.28;;
55537;SDS011;41383;51.418;7.286;2023-08-30T09:23:32;9.50;;;5.00;;
55537;SDS011;41383;51.418;7.286;2023-08-30T09:25:58;8.32;;;4.25;;
55537;SDS011;41383;51.418;7.286;2023-08-30T09:28:24;8.68;;;4.78;;
55537;SDS011;41383;51.418;7.286;2023-08-30T09:30:50;10.50;;;5.68;;
55537;SDS011;41383;51.418;7.286;2023-08-30T09:33:16;8.77;;;4.38;;
55537;SDS011;41383;51.418;7.286;2023-08-30T09:35:45;9.63;;;5.32;;
55537;SDS011;41383;51.418;7.286;2023-08-30T09:38:17;11.77;;;5.43;;
55537;SDS011;41383;51.418;7.286;2023-08-30T09:40:43;10.45;;;5.60;;
55537;SDS011;41383;51.418;7.286;2023-08-30T09:43:09;8.88;;;5.30;;
55537;SDS011;41383;51.418;7.286;2023-08-30T09:45:35;10.63;;;5.10;;
55537;SDS011;41383;51.418;7.286;2023-08-30T09:48:01;9.68;;;4.85;;
55537;SDS011;41383;51.418;7.286;2023-08-30T09:50:27;10.45;;;4.88;;
55537;SDS011;41383;51.418;7.286;2023-08-30T09:52:58;10.45;;;5.15;;
55537;SDS011;41383;51.418;7.286;2023-08-30T09:55:24;11.90;;;5.60;;
55537;SDS011;41383;51.418;7.286;2023-08-30T09:57:50;10.70;;;5.75;;
55537;SDS011;41383;51.418;7.286;2023-08-30T10:00:16;12.10;;;5.32;;
55537;SDS011;41383;51.418;7.286;2023-08-30T10:02:41;12.75;;;5.57;;
55537;SDS011;41383;51.418;7.286;2023-08-30T10:05:08;9.45;;;6.10;;
55537;SDS011;41383;51.418;7.286;2023-08-30T10:07:41;12.00;;;5.95;;
55537;SDS011;41383;51.418;7.286;2023-08-30T10:10:08;15.80;;;5.78;;
55537;SDS011;41383;51.418;7.286;2023-08-30T10:12:35;10.75;;;5.65;;
55537;SDS011;41383;51.418;7.286;2023-08-30T10:15:01;13.45;;;6.97;;
55537;SDS011;41383;51.418;7.286;2023-08-30T10:17:28;13.40;;;6.78;;
55537;SDS011;41383;51.418;7.286;2023-08-30T10:19:57;10.90;;;6.30;;
55537;SDS011;41383;51.418;7.286;2023-08-30T10:22:24;20.35;;;7.80;;
55537;SDS011;41383;51.418;7.286;2023-08-30T10:24:53;16.38;;;7.57;;
55537;SDS011;41383;51.418;7.286;2023-08-30T10:27:22;13.63;;;8.60;;
55537;SDS011;41383;51.418;7.286;2023-08-30T10:29:49;14.90;;;9.30;;
55537;SDS011;41383;51.418;7.286;2023-08-30T10:32:19;12.90;;;8.45;;
55537;SDS011;41383;51.418;7.286;2023-08-30T10:34:47;14.63;;;9.02;;
55537;SDS011;41383;51.418;7.286;2023-08-30T10:37:21;13.13;;;8.98;;
55537;SDS011;41383;51.418;7.286;2023-08-30T10:39:48;17.48;;;9.95;;
55537;SDS011;41383;51.418;7.286;2023-08-30T10:42:15;12.25;;;7.72;;
55537;SDS011;41383;51.418;7.286;2023-08-30T10:44:51;15.27;;;8.15;;
55537;SDS011;41383;51.418;7.286;2023-08-30T10:47:27;12.60;;;9.20;;
55537;SDS011;41383;51.418;7.286;2023-08-30T10:49:57;12.30;;;9.27;;
55537;SDS011;41383;51.418;7.286;2023-08-30T10:52:29;13.30;;;9.45;;
55537;SDS011;41383;51.418;7.286;2023-08-30T10:55:04;15.63;;;9.00;;
55537;SDS011;41383;51.418;7.286;2023-08-30T10:57:43;11.55;;;9.65;;
55537;SDS011;41383;51.418;7.286;2023-08-30T11:00:20;13.18;;;8.38;;
55537;SDS011;41383;51.418;7.286;2023-08-30T11:02:47;14.63;;;9.43;;
55537;SDS011;41383;51.418;7.286;2023-08-30T11:05:17;15.10;;;9.02;;
55537;SDS011;41383;51.418;7.286;2023-08-30T11:07:44;16.48;;;8.80;;
55537;SDS011;41383;51.418;7.286;2023-08-30T11:10:10;12.35;;;8.85;;
55537;SDS011;41383;51.418;7.286;2023-08-30T11:12:35;12.75;;;8.57;;
55537;SDS011;41383;51.418;7.286;2023-08-30T11:15:01;11.90;;;6.95;;
55537;SDS011;41383;51.418;7.286;2023-08-30T11:17:27;10.80;;;6.38;;
55537;SDS011;41383;51.418;7.286;2023-08-30T11:20:08;10.82;;;5.82;;
55537;SDS011;41383;51.418;7.286;2023-08-30T11:22:36;9.25;;;5.90;;
55537;SDS011;41383;51.418;7.286;2023-08-30T11:25:03;12.55;;;5.35;;
55537;SDS011;41383;51.418;7.286;2023-08-30T11:27:28;10.15;;;5.30;;
55537;SDS011;41383;51.418;7.286;2023-08-30T11:29:58;10.73;;;6.38;;
55537;SDS011;41383;51.418;7.286;2023-08-30T11:32:24;11.07;;;5.15;;
55537;SDS011;41383;51.418;7.286;2023-08-30T11:34:56;11.97;;;5.63;;
55537;SDS011;41383;51.418;7.286;2023-08-30T11:37:23;7.63;;;4.63;;
55537;SDS011;41383;51.418;7.286;2023-08-30T11:39:51;12.73;;;6.35;;
55537;SDS011;41383;51.418;7.286;2023-08-30T11:42:17;11.27;;;5.78;;
55537;SDS011;41383;51.418;7.286;2023-08-30T11:44:43;8.98;;;4.57;;
55537;SDS011;41383;51.418;7.286;2023-08-30T11:47:09;11.30;;;6.32;;
55537;SDS011;41383;51.418;7.286;2023-08-30T11:49:34;12.20;;;5.83;;
55537;SDS011;41383;51.418;7.286;2023-08-30T11:52:00;9.93;;;6.20;;
55537;SDS011;41383;51.418;7.286;2023-08-30T11:54:25;7.47;;;4.32;;
55537;SDS011;41383;51.418;7.286;2023-08-30T11:56:51;10.68;;;3.78;;
55537;SDS011;41383;51.418;7.286;2023-08-30T11:59:20;9.27;;;4.35;;
55537;SDS011;41383;51.418;7.286;2023-08-30T12:01:51;7.00;;;3.33;;
55537;SDS011;41383;51.418;7.286;2023-08-30T12:04:17;6.43;;;3.17;;
55537;SDS011;41383;51.418;7.286;2023-08-30T12:06:43;6.32;;;2.75;;
55537;SDS011;41383;51.418;7.286;2023-08-30T12:09:12;4.80;;;1.80;;
55537;SDS011;41383;51.418;7.286;2023-08-30T12:11:38;4.70;;;2.03;;
55537;SDS011;41383;51.418;7.286;2023-08-30T12:14:03;5.83;;;1.67;;
55537;SDS011;41383;51.418;7.286;2023-08-30T12:16:28;5.20;;;1.67;;
55537;SDS011;41383;51.418;7.286;2023-08-30T12:18:54;3.53;;;1.70;;
55537;SDS011;41383;51.418;7.286;2023-08-30T12:21:20;4.90;;;1.90;;
55537;SDS011;41383;51.418;7.286;2023-08-30T12:23:45;2.90;;;1.20;;
55537;SDS011;41383;51.418;7.286;2023-08-30T12:26:10;2.97;;;1.40;;
55537;SDS011;41383;51.418;7.286;2023-08-30T12:28:37;3.13;;;1.70;;
55537;SDS011;41383;51.418;7.286;2023-08-30T12:31:03;3.67;;;1.35;;
55537;SDS011;41383;51.418;7.286;2023-08-30T12:33:29;6.47;;;2.33;;
55537;SDS011;41383;51.418;7.286;2023-08-30T12:35:55;5.05;;;2.05;;
55537;SDS011;41383;51.418;7.286;2023-08-30T12:38:21;9.05;;;1.95;;
55537;SDS011;41383;51.418;7.286;2023-08-30T12:40:48;3.58;;;1.65;;
55537;SDS011;41383;51.418;7.286;2023-08-30T12:43:15;4.05;;;2.38;;
55537;SDS011;41383;51.418;7.286;2023-08-30T12:45:42;3.15;;;1.80;;
55537;SDS011;41383;51.418;7.286;2023-08-30T12:48:08;6.90;;;2.00;;
55537;SDS011;41383;51.418;7.286;2023-08-30T12:50:34;4.95;;;2.20;;
55537;SDS011;41383;51.418;7.286;2023-08-30T12:53:00;3.25;;;1.55;;
55537;SDS011;41383;51.418;7.286;2023-08-30T12:55:26;3.42;;;2.10;;
55537;SDS011;41383;51.418;7.286;2023-08-30T12:57:51;7.15;;;2.00;;
55537;SDS011;41383;51.418;7.286;2023-08-30T13:00:18;3.50;;;2.03;;
55537;SDS011;41383;51.418;7.286;2023-08-30T13:02:43;3.60;;;1.88;;
55537;SDS011;41383;51.418;7.286;2023-08-30T13:05:08;4.47;;;2.13;;
55537;SDS011;41383;51.418;7.286;2023-08-30T13:07:34;6.90;;;1.93;;
55537;SDS011;41383;51.418;7.286;2023-08-30T13:09:59;5.67;;;2.50;;
55537;SDS011;41383;51.418;7.286;2023-08-30T13:12:24;2.77;;;1.70;;
55537;SDS011;41383;51.418;7.286;2023-08-30T13:14:49;3.70;;;2.03;;
55537;SDS011;41383;51.418;7.286;2023-08-30T13:17:15;3.28;;;2.00;;
55537;SDS011;41383;51.418;7.286;2023-08-30T13:19:42;21.67;;;3.42;;
55537;SDS011;41383;51.418;7.286;2023-08-30T13:22:08;4.55;;;2.53;;
55537;SDS011;41383;51.418;7.286;2023-08-30T13:24:34;4.40;;;2.42;;
55537;SDS011;41383;51.418;7.286;2023-08-30T13:27:00;4.30;;;2.47;;
55537;SDS011;41383;51.418;7.286;2023-08-30T13:29:25;4.73;;;2.50;;
55537;SDS011;41383;51.418;7.286;2023-08-30T13:31:50;5.33;;;2.83;;
55537;SDS011;41383;51.418;7.286;2023-08-30T13:34:15;5.73;;;2.33;;
55537;SDS011;41383;51.418;7.286;2023-08-30T13:36:41;5.90;;;2.83;;
55537;SDS011;41383;51.418;7.286;2023-08-30T13:39:06;8.07;;;2.77;;
55537;SDS011;41383;51.418;7.286;2023-08-30T13:41:31;8.52;;;3.03;;
55537;SDS011;41383;51.418;7.286;2023-08-30T13:43:57;5.25;;;2.58;;
55537;SDS011;41383;51.418;7.286;2023-08-30T13:46:22;4.90;;;3.25;;
55537;SDS011;41383;51.418;7.286;2023-08-30T13:48:47;4.67;;;2.63;;
55537;SDS011;41383;51.418;7.286;2023-08-30T13:51:13;7.13;;;3.17;;
55537;SDS011;41383;51.418;7.286;2023-08-30T13:53:38;5.93;;;2.38;;
55537;SDS011;41383;51.418;7.286;2023-08-30T13:56:04;4.80;;;2.80;;
55537;SDS011;41383;51.418;7.286;2023-08-30T13:58:29;4.25;;;2.20;;
55537;SDS011;41383;51.418;7.286;2023-08-30T14:00:54;3.87;;;2.30;;
55537;SDS011;41383;51.418;7.286;2023-08-30T14:03:20;6.20;;;3.00;;
55537;SDS011;41383;51.418;7.286;2023-08-30T14:05:45;5.65;;;2.50;;
55537;SDS011;41383;51.418;7.286;2023-08-30T14:08:11;5.00;;;2.77;;
55537;SDS011;41383;51.418;7.286;2023-08-30T14:10:36;4.82;;;2.15;;
55537;SDS011;41383;51.418;7.286;2023-08-30T14:13:02;4.82;;;2.72;;
55537;SDS011;41383;51.418;7.286;2023-08-30T14:15:27;5.30;;;2.72;;
55537;SDS011;41383;51.418;7.286;2023-08-30T14:17:52;6.97;;;3.23;;
55537;SDS011;41383;51.418;7.286;2023-08-30T14:20:17;5.80;;;3.13;;
55537;SDS011;41383;51.418;7.286;2023-08-30T14:22:43;5.90;;;2.97;;
55537;SDS011;41383;51.418;7.286;2023-08-30T14:25:08;4.45;;;2.05;;
55537;SDS011;41383;51.418;7.286;2023-08-30T14:27:34;5.85;;;2.60;;